CheckWX is a tool to help pilots better visualize weather data.  It is not intended as a substitute for an official pre-flight weather briefing.

12:26:20 UTC

KEFD TAF
Ellington Airport
Houston, Texas, USA
TAF KEFD 221200Z 2212/2318 VRB06KT 9999 SCT250 QNH3007INS BECMG 2307/2308 15006KT 8000 BR FEW050 SCT080 QNH3006INS BECMG 2316/2317 15012G18KT 9999 NSW BKN050 QNH3014INS TX24/2221Z TN11/2212Z

Mar-22@
12:00 UTC

Mar-22 @ 12:00 UTC

Mar-23@
07:00 UTC

Mar-23 @ 07:00 UTC

TAF KEFD 221200Z 2212/2318 VRB06KT 9999 SCT250 QNH3007INS
Wind
  • Variable at 6 KTS
Cloud Levels
  • Scattered at 25,000' AGL

Mar-23@
07:00 UTC

Mar-23 @ 07:00 UTC

Mar-23@
16:00 UTC

Mar-23 @ 16:00 UTC

BECMG 2307/2308 15006KT 8000 BR FEW050 SCT080 QNH3006INS

Becoming

Becoming Conditions expected by Sat, Mar 23, 2019 @ 08:00 UTC

Wind
  • 150° at 6 KTS
Conditions
Mist
Cloud Levels
  • Few at 5,000' AGL
  • Scattered at 8,000' AGL

Mar-23@
16:00 UTC

Mar-23 @ 16:00 UTC

Mar-23@
18:00 UTC

Mar-23 @ 18:00 UTC

BECMG 2316/2317 15012G18KT 9999 NSW BKN050 QNH3014INS TX24/2221Z TN11/2212Z

Becoming

Becoming Conditions expected by Sat, Mar 23, 2019 @ 17:00 UTC

Wind
  • 150° at 12 KTS
  • {Gusting to 18 KTS
Conditions
No significant weather
Cloud Levels
  • Broken at 5,000' AGL